Terminal Aerodrome Forecast
Issued by NWS

Home | Current Version | Previous Version | Text Only | Print | Product List | Glossary On
Versions: 1 2 3 4 5 6 7 8 9 10 11 12 13 14
343
FTUS42 KGSP 201735
TAFAND
TAF
KAND 201735Z 2018/2118 05004KT P6SM SKC
     FM210700 VRB03KT P6SM SKC
     FM211200 07008KT P6SM SKC=

USA.gov is the U.S. government's official web portal to all federal, state and local government web resources and services.